createdAt,value
2022-09-20T00:05:38.809Z,9.60
2022-09-20T00:16:09.837Z,11.40
2022-09-20T00:26:38.278Z,10.50
2022-09-20T00:37:06.427Z,9.80
2022-09-20T00:47:43.309Z,10.20
2022-09-20T00:58:12.695Z,11.20
2022-09-20T01:08:43.660Z,9.40
2022-09-20T01:19:20.829Z,8.40
2022-09-20T01:30:02.892Z,8.40
2022-09-20T01:40:40.148Z,6.40
2022-09-20T01:51:46.456Z,7.00
2022-09-20T02:02:37.459Z,7.90
2022-09-20T02:13:10.627Z,6.80
2022-09-20T02:23:50.976Z,6.60
2022-09-20T02:34:39.513Z,7.10
2022-09-20T02:55:43.547Z,9.20
2022-09-20T03:06:22.431Z,7.10
2022-09-20T03:17:03.970Z,5.80
2022-09-20T03:27:41.237Z,5.40
2022-09-20T03:38:26.739Z,4.90
2022-09-20T03:49:32.633Z,4.90
2022-09-20T04:00:16.405Z,5.60
2022-09-20T04:10:55.877Z,6.80
2022-09-20T04:21:28.767Z,5.70
2022-09-20T04:32:03.873Z,5.40
2022-09-20T04:43:09.145Z,5.10
2022-09-20T04:54:13.612Z,6.40
2022-09-20T05:05:05.441Z,7.00
2022-09-20T05:15:43.600Z,6.40
2022-09-20T05:26:16.213Z,6.00
2022-09-20T05:36:51.314Z,5.50
2022-09-20T05:47:25.966Z,4.90
2022-09-20T05:58:12.407Z,4.90
2022-09-20T06:09:07.735Z,6.60
2022-09-20T06:19:42.356Z,5.80
2022-09-20T06:30:18.320Z,4.80
2022-09-20T06:41:07.813Z,5.30
2022-09-20T06:51:39.364Z,5.50
2022-09-20T07:02:08.427Z,5.30
2022-09-20T07:12:36.813Z,6.30
2022-09-20T07:23:05.196Z,5.00
2022-09-20T07:33:33.136Z,5.50
2022-09-20T07:44:21.080Z,4.20
2022-09-20T07:54:50.156Z,3.70
2022-09-20T08:05:18.378Z,3.90
2022-09-20T08:15:46.685Z,3.70
2022-09-20T08:36:46.364Z,3.80
2022-09-20T08:47:21.348Z,5.20
2022-09-20T08:57:52.189Z,4.20
2022-09-20T09:08:23.918Z,8.50
2022-09-20T09:31:23.150Z,5.60
2022-09-20T09:41:51.479Z,4.10
2022-09-20T10:03:12.354Z,4.10
2022-09-20T10:13:46.683Z,3.00
2022-09-20T10:24:32.002Z,1.90
2022-09-20T10:35:30.132Z,1.60
2022-09-20T10:46:30.922Z,1.40
2022-09-20T10:57:05.082Z,2.10
2022-09-20T11:07:48.896Z,2.10
2022-09-20T11:18:23.635Z,2.40
2022-09-20T11:28:56.161Z,3.90
2022-09-20T11:39:29.200Z,4.40
2022-09-20T11:50:24.230Z,2.90
2022-09-20T12:00:55.442Z,2.90
2022-09-20T12:11:32.575Z,2.90
2022-09-20T12:22:27.143Z,1.80
2022-09-20T12:32:57.609Z,1.40
2022-09-20T12:43:28.302Z,1.30
2022-09-20T12:54:06.856Z,1.10
2022-09-20T13:05:00.530Z,1.20
2022-09-20T13:15:29.850Z,1.30
2022-09-20T13:25:59.310Z,1.70
2022-09-20T13:36:32.003Z,0.90
2022-09-20T13:46:59.963Z,1.20
2022-09-20T13:57:31.242Z,1.20
2022-09-20T14:08:01.787Z,1.10
2022-09-20T14:18:29.928Z,1.20
2022-09-20T14:28:58.018Z,1.40
2022-09-20T14:39:25.964Z,3.90
2022-09-20T14:50:04.101Z,1.40
2022-09-20T15:00:46.685Z,1.50
2022-09-20T15:11:16.856Z,1.70
2022-09-20T15:21:45.147Z,1.90
2022-09-20T15:32:14.032Z,2.10
2022-09-20T15:42:43.554Z,2.20
2022-09-20T15:53:12.731Z,3.00
2022-09-20T16:03:41.018Z,2.60
2022-09-20T16:14:09.270Z,3.80
2022-09-20T16:24:38.628Z,4.00
2022-09-20T16:35:08.324Z,4.00
2022-09-20T16:45:36.729Z,4.20
2022-09-20T16:56:06.931Z,5.40
2022-09-20T17:06:36.798Z,6.10
2022-09-20T17:17:05.494Z,5.50
2022-09-20T17:27:37.747Z,5.80
2022-09-20T17:38:06.375Z,14.40
2022-09-20T17:59:03.856Z,8.20
2022-09-20T18:09:31.758Z,11.80
2022-09-20T18:30:26.598Z,11.00
2022-09-20T18:41:00.970Z,10.40
2022-09-20T18:51:30.316Z,11.50
2022-09-20T19:02:20.074Z,10.40
2022-09-20T19:12:54.509Z,14.40
2022-09-20T19:23:36.430Z,15.90
2022-09-20T19:34:11.568Z,18.80
2022-09-20T19:44:49.523Z,17.90
2022-09-20T19:55:19.677Z,16.30
2022-09-20T20:05:55.028Z,14.20
2022-09-20T20:16:30.027Z,16.90
2022-09-20T20:26:57.918Z,13.20
2022-09-20T20:37:28.288Z,12.90
2022-09-20T20:48:00.399Z,12.20
2022-09-20T20:58:33.484Z,12.80
2022-09-20T21:09:02.185Z,13.80
2022-09-20T21:19:30.164Z,12.90
2022-09-20T21:29:58.464Z,15.30
2022-09-20T21:50:53.910Z,10.40
2022-09-20T22:01:23.022Z,12.20
2022-09-20T22:11:51.770Z,9.10
2022-09-20T22:22:19.719Z,7.90
2022-09-20T22:32:47.607Z,7.70
2022-09-20T22:43:15.471Z,6.10
2022-09-20T22:53:44.079Z,6.40
2022-09-20T23:04:14.017Z,7.90
2022-09-20T23:14:41.894Z,6.50
2022-09-20T23:25:11.115Z,6.90
2022-09-20T23:35:45.642Z,5.40
2022-09-20T23:46:14.972Z,6.50
2022-09-20T23:56:43.028Z,5.80
